sensor_id;sensor_type;location;lat;lon;timestamp;P1;durP1;ratioP1;P2;durP2;ratioP2
59308;SDS011;48433;53.016;-2.260;2023-05-17T00:01:46;17.23;;;5.50;;
59308;SDS011;48433;53.016;-2.260;2023-05-17T00:04:14;17.60;;;6.72;;
59308;SDS011;48433;53.016;-2.260;2023-05-17T00:06:42;18.63;;;6.38;;
59308;SDS011;48433;53.016;-2.260;2023-05-17T00:09:10;16.95;;;6.32;;
59308;SDS011;48433;53.016;-2.260;2023-05-17T00:11:38;20.15;;;8.70;;
59308;SDS011;48433;53.016;-2.260;2023-05-17T00:14:06;19.50;;;6.43;;
59308;SDS011;48433;53.016;-2.260;2023-05-17T00:16:33;18.63;;;6.22;;
59308;SDS011;48433;53.016;-2.260;2023-05-17T00:19:01;16.92;;;6.30;;
59308;SDS011;48433;53.016;-2.260;2023-05-17T00:21:29;15.20;;;6.22;;
59308;SDS011;48433;53.016;-2.260;2023-05-17T00:23:57;15.63;;;7.20;;
59308;SDS011;48433;53.016;-2.260;2023-05-17T00:26:25;14.82;;;7.32;;
59308;SDS011;48433;53.016;-2.260;2023-05-17T00:28:53;19.80;;;6.57;;
59308;SDS011;48433;53.016;-2.260;2023-05-17T00:31:21;16.13;;;6.72;;
59308;SDS011;48433;53.016;-2.260;2023-05-17T00:33:48;17.77;;;6.95;;
59308;SDS011;48433;53.016;-2.260;2023-05-17T00:36:16;15.93;;;5.95;;
59308;SDS011;48433;53.016;-2.260;2023-05-17T00:38:44;15.82;;;7.32;;
59308;SDS011;48433;53.016;-2.260;2023-05-17T00:41:12;19.10;;;7.55;;
59308;SDS011;48433;53.016;-2.260;2023-05-17T00:43:40;21.25;;;7.38;;
59308;SDS011;48433;53.016;-2.260;2023-05-17T00:46:08;18.42;;;6.70;;
59308;SDS011;48433;53.016;-2.260;2023-05-17T00:48:36;19.58;;;7.10;;
59308;SDS011;48433;53.016;-2.260;2023-05-17T00:51:04;14.27;;;5.93;;
59308;SDS011;48433;53.016;-2.260;2023-05-17T00:53:33;18.58;;;6.85;;
59308;SDS011;48433;53.016;-2.260;2023-05-17T00:56:03;16.75;;;5.80;;
59308;SDS011;48433;53.016;-2.260;2023-05-17T00:58:31;20.55;;;7.30;;
59308;SDS011;48433;53.016;-2.260;2023-05-17T01:00:59;18.20;;;6.55;;
59308;SDS011;48433;53.016;-2.260;2023-05-17T01:03:28;14.98;;;5.72;;
59308;SDS011;48433;53.016;-2.260;2023-05-17T01:05:55;23.67;;;6.93;;
59308;SDS011;48433;53.016;-2.260;2023-05-17T01:08:23;20.80;;;6.28;;
59308;SDS011;48433;53.016;-2.260;2023-05-17T01:14:01;21.20;;;6.13;;
59308;SDS011;48433;53.016;-2.260;2023-05-17T01:16:40;21.10;;;6.82;;
59308;SDS011;48433;53.016;-2.260;2023-05-17T01:19:25;25.50;;;7.60;;
59308;SDS011;48433;53.016;-2.260;2023-05-17T01:27:47;19.92;;;7.32;;
59308;SDS011;48433;53.016;-2.260;2023-05-17T01:30:16;18.83;;;6.43;;
59308;SDS011;48433;53.016;-2.260;2023-05-17T01:32:47;17.42;;;6.60;;
59308;SDS011;48433;53.016;-2.260;2023-05-17T01:35:15;14.95;;;6.90;;
59308;SDS011;48433;53.016;-2.260;2023-05-17T01:37:43;19.42;;;7.07;;
59308;SDS011;48433;53.016;-2.260;2023-05-17T01:40:10;18.33;;;6.22;;
59308;SDS011;48433;53.016;-2.260;2023-05-17T01:42:38;16.95;;;6.57;;
59308;SDS011;48433;53.016;-2.260;2023-05-17T01:48:08;20.98;;;7.65;;
59308;SDS011;48433;53.016;-2.260;2023-05-17T01:50:44;18.08;;;6.55;;
59308;SDS011;48433;53.016;-2.260;2023-05-17T01:53:29;21.05;;;7.43;;
59308;SDS011;48433;53.016;-2.260;2023-05-17T01:56:02;17.05;;;6.95;;
59308;SDS011;48433;53.016;-2.260;2023-05-17T01:58:51;23.90;;;6.95;;
59308;SDS011;48433;53.016;-2.260;2023-05-17T02:01:22;18.90;;;6.00;;
59308;SDS011;48433;53.016;-2.260;2023-05-17T02:04:02;21.58;;;6.80;;
59308;SDS011;48433;53.016;-2.260;2023-05-17T02:06:31;20.38;;;7.18;;
59308;SDS011;48433;53.016;-2.260;2023-05-17T02:08:59;17.08;;;7.03;;
59308;SDS011;48433;53.016;-2.260;2023-05-17T02:11:28;19.25;;;6.90;;
59308;SDS011;48433;53.016;-2.260;2023-05-17T02:13:56;25.85;;;7.25;;
59308;SDS011;48433;53.016;-2.260;2023-05-17T02:16:24;22.17;;;7.38;;
59308;SDS011;48433;53.016;-2.260;2023-05-17T02:18:52;18.25;;;7.03;;
59308;SDS011;48433;53.016;-2.260;2023-05-17T02:21:20;19.20;;;8.25;;
59308;SDS011;48433;53.016;-2.260;2023-05-17T02:23:47;16.52;;;6.72;;
59308;SDS011;48433;53.016;-2.260;2023-05-17T02:26:18;21.13;;;7.05;;
59308;SDS011;48433;53.016;-2.260;2023-05-17T02:28:45;17.00;;;7.03;;
59308;SDS011;48433;53.016;-2.260;2023-05-17T02:31:13;18.80;;;7.95;;
59308;SDS011;48433;53.016;-2.260;2023-05-17T02:33:40;23.42;;;6.93;;
59308;SDS011;48433;53.016;-2.260;2023-05-17T02:36:10;18.45;;;6.70;;
59308;SDS011;48433;53.016;-2.260;2023-05-17T02:38:37;16.70;;;7.53;;
59308;SDS011;48433;53.016;-2.260;2023-05-17T02:41:05;18.88;;;6.75;;
59308;SDS011;48433;53.016;-2.260;2023-05-17T02:43:33;18.00;;;7.78;;
59308;SDS011;48433;53.016;-2.260;2023-05-17T02:46:02;16.10;;;6.82;;
59308;SDS011;48433;53.016;-2.260;2023-05-17T02:48:30;17.40;;;7.20;;
59308;SDS011;48433;53.016;-2.260;2023-05-17T02:50:58;19.98;;;7.43;;
59308;SDS011;48433;53.016;-2.260;2023-05-17T02:53:26;19.90;;;7.10;;
59308;SDS011;48433;53.016;-2.260;2023-05-17T02:55:53;17.40;;;6.68;;
59308;SDS011;48433;53.016;-2.260;2023-05-17T02:58:24;16.85;;;6.90;;
59308;SDS011;48433;53.016;-2.260;2023-05-17T03:00:52;15.88;;;7.00;;
59308;SDS011;48433;53.016;-2.260;2023-05-17T03:03:19;21.73;;;7.97;;
59308;SDS011;48433;53.016;-2.260;2023-05-17T03:05:48;16.27;;;7.07;;
59308;SDS011;48433;53.016;-2.260;2023-05-17T03:08:15;17.48;;;7.18;;
59308;SDS011;48433;53.016;-2.260;2023-05-17T03:10:45;14.98;;;6.88;;
59308;SDS011;48433;53.016;-2.260;2023-05-17T03:13:13;24.35;;;7.38;;
59308;SDS011;48433;53.016;-2.260;2023-05-17T03:15:42;23.65;;;7.53;;
59308;SDS011;48433;53.016;-2.260;2023-05-17T03:18:10;16.85;;;7.25;;
59308;SDS011;48433;53.016;-2.260;2023-05-17T03:20:39;14.70;;;6.78;;
59308;SDS011;48433;53.016;-2.260;2023-05-17T03:23:06;14.60;;;7.38;;
59308;SDS011;48433;53.016;-2.260;2023-05-17T03:25:46;14.82;;;6.95;;
59308;SDS011;48433;53.016;-2.260;2023-05-17T03:28:14;14.75;;;6.45;;
59308;SDS011;48433;53.016;-2.260;2023-05-17T03:30:43;18.90;;;7.85;;
59308;SDS011;48433;53.016;-2.260;2023-05-17T03:33:12;17.80;;;7.43;;
59308;SDS011;48433;53.016;-2.260;2023-05-17T03:35:41;18.52;;;7.18;;
59308;SDS011;48433;53.016;-2.260;2023-05-17T03:38:09;16.67;;;6.68;;
59308;SDS011;48433;53.016;-2.260;2023-05-17T03:40:37;15.02;;;6.72;;
59308;SDS011;48433;53.016;-2.260;2023-05-17T03:43:07;17.08;;;7.53;;
59308;SDS011;48433;53.016;-2.260;2023-05-17T03:45:35;18.70;;;7.30;;
59308;SDS011;48433;53.016;-2.260;2023-05-17T03:48:03;22.00;;;8.13;;
59308;SDS011;48433;53.016;-2.260;2023-05-17T03:50:31;18.35;;;6.65;;
59308;SDS011;48433;53.016;-2.260;2023-05-17T03:52:59;21.33;;;7.22;;
59308;SDS011;48433;53.016;-2.260;2023-05-17T03:55:27;19.25;;;6.28;;
59308;SDS011;48433;53.016;-2.260;2023-05-17T03:57:55;16.42;;;7.30;;
59308;SDS011;48433;53.016;-2.260;2023-05-17T04:00:24;19.45;;;7.40;;
59308;SDS011;48433;53.016;-2.260;2023-05-17T04:02:57;18.45;;;6.57;;
59308;SDS011;48433;53.016;-2.260;2023-05-17T04:05:25;19.05;;;7.28;;
59308;SDS011;48433;53.016;-2.260;2023-05-17T04:07:54;16.52;;;7.15;;
59308;SDS011;48433;53.016;-2.260;2023-05-17T04:10:21;16.55;;;6.70;;
59308;SDS011;48433;53.016;-2.260;2023-05-17T04:12:49;14.02;;;7.25;;
59308;SDS011;48433;53.016;-2.260;2023-05-17T04:15:17;16.83;;;6.97;;
59308;SDS011;48433;53.016;-2.260;2023-05-17T04:17:47;17.88;;;6.57;;
59308;SDS011;48433;53.016;-2.260;2023-05-17T04:20:15;17.35;;;6.90;;
59308;SDS011;48433;53.016;-2.260;2023-05-17T04:22:43;14.73;;;6.75;;
59308;SDS011;48433;53.016;-2.260;2023-05-17T04:25:11;13.77;;;6.60;;
59308;SDS011;48433;53.016;-2.260;2023-05-17T04:27:39;20.85;;;7.72;;
59308;SDS011;48433;53.016;-2.260;2023-05-17T04:30:09;13.43;;;7.30;;
59308;SDS011;48433;53.016;-2.260;2023-05-17T04:32:37;16.27;;;7.22;;
59308;SDS011;48433;53.016;-2.260;2023-05-17T04:35:06;19.27;;;8.93;;
59308;SDS011;48433;53.016;-2.260;2023-05-17T04:37:34;17.65;;;6.90;;
59308;SDS011;48433;53.016;-2.260;2023-05-17T04:40:15;13.32;;;6.65;;
59308;SDS011;48433;53.016;-2.260;2023-05-17T04:42:44;14.38;;;6.47;;
59308;SDS011;48433;53.016;-2.260;2023-05-17T04:45:12;17.45;;;6.72;;
59308;SDS011;48433;53.016;-2.260;2023-05-17T04:47:41;28.38;;;8.40;;
59308;SDS011;48433;53.016;-2.260;2023-05-17T04:50:09;20.45;;;8.13;;
59308;SDS011;48433;53.016;-2.260;2023-05-17T04:52:38;18.02;;;8.10;;
59308;SDS011;48433;53.016;-2.260;2023-05-17T04:55:08;23.13;;;8.90;;
59308;SDS011;48433;53.016;-2.260;2023-05-17T04:57:36;15.32;;;6.90;;
59308;SDS011;48433;53.016;-2.260;2023-05-17T05:00:06;15.38;;;6.65;;
59308;SDS011;48433;53.016;-2.260;2023-05-17T05:02:38;15.43;;;8.18;;
59308;SDS011;48433;53.016;-2.260;2023-05-17T05:05:07;22.40;;;7.50;;
59308;SDS011;48433;53.016;-2.260;2023-05-17T05:07:39;16.75;;;7.68;;
59308;SDS011;48433;53.016;-2.260;2023-05-17T05:10:08;20.65;;;8.15;;
59308;SDS011;48433;53.016;-2.260;2023-05-17T05:12:36;19.33;;;9.13;;
59308;SDS011;48433;53.016;-2.260;2023-05-17T05:15:05;20.05;;;9.48;;
59308;SDS011;48433;53.016;-2.260;2023-05-17T05:17:35;24.67;;;11.63;;
59308;SDS011;48433;53.016;-2.260;2023-05-17T05:20:02;19.23;;;10.50;;
59308;SDS011;48433;53.016;-2.260;2023-05-17T05:22:31;19.95;;;10.02;;
59308;SDS011;48433;53.016;-2.260;2023-05-17T05:24:59;14.85;;;6.93;;
59308;SDS011;48433;53.016;-2.260;2023-05-17T05:27:27;16.40;;;7.25;;
59308;SDS011;48433;53.016;-2.260;2023-05-17T05:29:55;19.88;;;7.90;;
59308;SDS011;48433;53.016;-2.260;2023-05-17T05:32:23;16.50;;;7.47;;
59308;SDS011;48433;53.016;-2.260;2023-05-17T05:34:52;28.85;;;8.25;;
59308;SDS011;48433;53.016;-2.260;2023-05-17T05:37:19;24.98;;;9.55;;
59308;SDS011;48433;53.016;-2.260;2023-05-17T05:39:48;16.50;;;8.45;;
59308;SDS011;48433;53.016;-2.260;2023-05-17T05:42:15;19.52;;;8.68;;
59308;SDS011;48433;53.016;-2.260;2023-05-17T05:44:43;21.00;;;8.13;;
59308;SDS011;48433;53.016;-2.260;2023-05-17T05:47:11;18.95;;;7.65;;
59308;SDS011;48433;53.016;-2.260;2023-05-17T05:49:39;20.20;;;8.50;;
59308;SDS011;48433;53.016;-2.260;2023-05-17T05:52:07;21.88;;;8.23;;
59308;SDS011;48433;53.016;-2.260;2023-05-17T05:54:36;19.10;;;8.30;;
59308;SDS011;48433;53.016;-2.260;2023-05-17T05:57:03;17.90;;;7.90;;
59308;SDS011;48433;53.016;-2.260;2023-05-17T05:59:31;17.08;;;8.00;;
59308;SDS011;48433;53.016;-2.260;2023-05-17T06:01:59;20.08;;;8.65;;
59308;SDS011;48433;53.016;-2.260;2023-05-17T06:04:26;19.95;;;7.60;;
59308;SDS011;48433;53.016;-2.260;2023-05-17T06:07:10;20.60;;;7.85;;
59308;SDS011;48433;53.016;-2.260;2023-05-17T06:09:38;21.75;;;8.02;;
59308;SDS011;48433;53.016;-2.260;2023-05-17T06:12:05;18.58;;;7.18;;
59308;SDS011;48433;53.016;-2.260;2023-05-17T06:14:33;21.48;;;7.28;;
59308;SDS011;48433;53.016;-2.260;2023-05-17T06:17:03;18.08;;;7.60;;
59308;SDS011;48433;53.016;-2.260;2023-05-17T06:19:31;18.73;;;7.45;;
59308;SDS011;48433;53.016;-2.260;2023-05-17T06:21:59;17.80;;;8.52;;
59308;SDS011;48433;53.016;-2.260;2023-05-17T06:24:27;20.67;;;7.50;;
59308;SDS011;48433;53.016;-2.260;2023-05-17T06:26:54;19.17;;;7.20;;
59308;SDS011;48433;53.016;-2.260;2023-05-17T06:29:22;24.50;;;8.35;;
59308;SDS011;48433;53.016;-2.260;2023-05-17T06:31:50;16.08;;;7.43;;
59308;SDS011;48433;53.016;-2.260;2023-05-17T06:34:17;15.93;;;7.85;;
59308;SDS011;48433;53.016;-2.260;2023-05-17T06:36:45;22.77;;;7.28;;
59308;SDS011;48433;53.016;-2.260;2023-05-17T06:39:15;17.38;;;7.97;;
59308;SDS011;48433;53.016;-2.260;2023-05-17T06:41:43;21.20;;;7.85;;
59308;SDS011;48433;53.016;-2.260;2023-05-17T06:44:16;15.27;;;7.70;;
59308;SDS011;48433;53.016;-2.260;2023-05-17T06:46:43;28.63;;;9.45;;
59308;SDS011;48433;53.016;-2.260;2023-05-17T06:49:11;17.10;;;7.55;;
59308;SDS011;48433;53.016;-2.260;2023-05-17T06:51:38;18.77;;;8.10;;
59308;SDS011;48433;53.016;-2.260;2023-05-17T06:54:06;15.43;;;7.38;;
59308;SDS011;48433;53.016;-2.260;2023-05-17T06:56:34;19.80;;;6.65;;
59308;SDS011;48433;53.016;-2.260;2023-05-17T06:59:02;18.02;;;7.50;;
59308;SDS011;48433;53.016;-2.260;2023-05-17T07:01:29;17.90;;;7.38;;
59308;SDS011;48433;53.016;-2.260;2023-05-17T07:03:57;20.52;;;6.90;;
59308;SDS011;48433;53.016;-2.260;2023-05-17T07:06:25;16.48;;;5.85;;
59308;SDS011;48433;53.016;-2.260;2023-05-17T07:08:53;15.70;;;5.82;;
59308;SDS011;48433;53.016;-2.260;2023-05-17T07:11:20;18.90;;;6.50;;
59308;SDS011;48433;53.016;-2.260;2023-05-17T07:13:48;15.95;;;6.30;;
59308;SDS011;48433;53.016;-2.260;2023-05-17T07:16:20;19.92;;;6.63;;
59308;SDS011;48433;53.016;-2.260;2023-05-17T07:18:47;23.17;;;6.00;;
59308;SDS011;48433;53.016;-2.260;2023-05-17T07:21:15;12.93;;;5.35;;
59308;SDS011;48433;53.016;-2.260;2023-05-17T07:23:43;17.77;;;5.70;;
59308;SDS011;48433;53.016;-2.260;2023-05-17T07:26:11;14.77;;;5.80;;
59308;SDS011;48433;53.016;-2.260;2023-05-17T07:28:39;17.50;;;6.15;;
59308;SDS011;48433;53.016;-2.260;2023-05-17T07:31:06;16.75;;;5.45;;
59308;SDS011;48433;53.016;-2.260;2023-05-17T07:33:36;14.90;;;4.57;;
59308;SDS011;48433;53.016;-2.260;2023-05-17T07:36:05;14.30;;;4.70;;
59308;SDS011;48433;53.016;-2.260;2023-05-17T07:38:33;13.70;;;5.20;;
59308;SDS011;48433;53.016;-2.260;2023-05-17T07:41:01;13.23;;;4.15;;
59308;SDS011;48433;53.016;-2.260;2023-05-17T07:43:30;15.27;;;5.22;;
59308;SDS011;48433;53.016;-2.260;2023-05-17T07:45:57;13.32;;;4.53;;
59308;SDS011;48433;53.016;-2.260;2023-05-17T07:48:25;12.27;;;4.43;;
59308;SDS011;48433;53.016;-2.260;2023-05-17T07:50:53;13.05;;;5.30;;
59308;SDS011;48433;53.016;-2.260;2023-05-17T07:53:21;18.58;;;5.50;;
59308;SDS011;48433;53.016;-2.260;2023-05-17T07:55:49;14.63;;;4.22;;
59308;SDS011;48433;53.016;-2.260;2023-05-17T07:58:16;12.75;;;4.53;;
59308;SDS011;48433;53.016;-2.260;2023-05-17T08:00:44;10.50;;;3.95;;
59308;SDS011;48433;53.016;-2.260;2023-05-17T08:03:12;15.88;;;4.25;;
59308;SDS011;48433;53.016;-2.260;2023-05-17T08:05:43;13.90;;;4.43;;
59308;SDS011;48433;53.016;-2.260;2023-05-17T08:08:10;14.90;;;3.45;;
59308;SDS011;48433;53.016;-2.260;2023-05-17T08:10:38;12.50;;;3.72;;
59308;SDS011;48433;53.016;-2.260;2023-05-17T08:13:06;10.90;;;3.83;;
59308;SDS011;48433;53.016;-2.260;2023-05-17T08:15:35;10.50;;;3.70;;
59308;SDS011;48433;53.016;-2.260;2023-05-17T08:18:03;9.77;;;3.30;;
59308;SDS011;48433;53.016;-2.260;2023-05-17T08:20:31;12.30;;;3.40;;
59308;SDS011;48433;53.016;-2.260;2023-05-17T08:22:58;10.48;;;3.30;;
59308;SDS011;48433;53.016;-2.260;2023-05-17T08:25:26;11.68;;;3.60;;
59308;SDS011;48433;53.016;-2.260;2023-05-17T08:27:55;13.98;;;3.40;;
59308;SDS011;48433;53.016;-2.260;2023-05-17T08:30:23;12.60;;;4.35;;
59308;SDS011;48433;53.016;-2.260;2023-05-17T08:32:53;17.33;;;3.90;;
59308;SDS011;48433;53.016;-2.260;2023-05-17T08:35:22;12.07;;;3.85;;
59308;SDS011;48433;53.016;-2.260;2023-05-17T08:37:55;12.90;;;3.78;;
59308;SDS011;48433;53.016;-2.260;2023-05-17T08:40:22;13.77;;;4.47;;
59308;SDS011;48433;53.016;-2.260;2023-05-17T08:42:50;14.15;;;4.47;;
59308;SDS011;48433;53.016;-2.260;2023-05-17T08:45:19;11.63;;;3.80;;
59308;SDS011;48433;53.016;-2.260;2023-05-17T08:47:48;13.50;;;4.47;;
59308;SDS011;48433;53.016;-2.260;2023-05-17T08:50:17;16.02;;;3.70;;
59308;SDS011;48433;53.016;-2.260;2023-05-17T08:52:44;9.73;;;3.88;;
59308;SDS011;48433;53.016;-2.260;2023-05-17T08:55:12;13.65;;;3.72;;
59308;SDS011;48433;53.016;-2.260;2023-05-17T08:57:42;14.82;;;3.88;;
59308;SDS011;48433;53.016;-2.260;2023-05-17T09:00:11;13.55;;;4.10;;
59308;SDS011;48433;53.016;-2.260;2023-05-17T09:02:45;8.25;;;3.25;;
59308;SDS011;48433;53.016;-2.260;2023-05-17T09:05:13;10.77;;;3.83;;
59308;SDS011;48433;53.016;-2.260;2023-05-17T09:07:42;11.10;;;3.42;;
59308;SDS011;48433;53.016;-2.260;2023-05-17T09:10:10;9.88;;;3.67;;
59308;SDS011;48433;53.016;-2.260;2023-05-17T09:12:39;11.23;;;3.83;;
59308;SDS011;48433;53.016;-2.260;2023-05-17T09:15:11;10.45;;;3.90;;
59308;SDS011;48433;53.016;-2.260;2023-05-17T09:17:41;11.30;;;3.83;;
59308;SDS011;48433;53.016;-2.260;2023-05-17T09:20:09;10.32;;;3.55;;
59308;SDS011;48433;53.016;-2.260;2023-05-17T09:22:37;12.82;;;4.32;;
59308;SDS011;48433;53.016;-2.260;2023-05-17T09:25:05;12.77;;;4.80;;
59308;SDS011;48433;53.016;-2.260;2023-05-17T09:27:33;9.98;;;3.72;;
59308;SDS011;48433;53.016;-2.260;2023-05-17T09:30:01;11.45;;;3.75;;
59308;SDS011;48433;53.016;-2.260;2023-05-17T09:32:29;13.93;;;3.60;;
59308;SDS011;48433;53.016;-2.260;2023-05-17T09:34:59;15.32;;;4.38;;
59308;SDS011;48433;53.016;-2.260;2023-05-17T09:37:28;12.43;;;3.30;;
59308;SDS011;48433;53.016;-2.260;2023-05-17T09:39:56;15.15;;;4.13;;
59308;SDS011;48433;53.016;-2.260;2023-05-17T09:42:24;12.20;;;3.47;;
59308;SDS011;48433;53.016;-2.260;2023-05-17T09:44:53;9.30;;;3.67;;
59308;SDS011;48433;53.016;-2.260;2023-05-17T09:47:26;13.73;;;3.47;;
59308;SDS011;48433;53.016;-2.260;2023-05-17T09:49:56;14.50;;;4.70;;
59308;SDS011;48433;53.016;-2.260;2023-05-17T09:52:26;13.50;;;3.73;;
59308;SDS011;48433;53.016;-2.260;2023-05-17T09:55:01;9.65;;;3.28;;
59308;SDS011;48433;53.016;-2.260;2023-05-17T09:57:36;10.20;;;4.00;;
59308;SDS011;48433;53.016;-2.260;2023-05-17T10:00:06;14.48;;;3.92;;
59308;SDS011;48433;53.016;-2.260;2023-05-17T10:02:39;12.48;;;4.00;;
59308;SDS011;48433;53.016;-2.260;2023-05-17T10:05:09;12.98;;;4.13;;
59308;SDS011;48433;53.016;-2.260;2023-05-17T10:07:38;12.88;;;3.50;;
59308;SDS011;48433;53.016;-2.260;2023-05-17T10:10:07;11.38;;;3.65;;
59308;SDS011;48433;53.016;-2.260;2023-05-17T10:12:35;11.50;;;3.92;;
59308;SDS011;48433;53.016;-2.260;2023-05-17T10:15:06;11.20;;;3.42;;
59308;SDS011;48433;53.016;-2.260;2023-05-17T10:17:37;16.80;;;4.72;;
59308;SDS011;48433;53.016;-2.260;2023-05-17T10:20:11;15.35;;;4.40;;
59308;SDS011;48433;53.016;-2.260;2023-05-17T10:22:41;21.80;;;3.95;;
59308;SDS011;48433;53.016;-2.260;2023-05-17T10:25:09;14.40;;;4.00;;
59308;SDS011;48433;53.016;-2.260;2023-05-17T10:27:38;8.73;;;3.97;;
59308;SDS011;48433;53.016;-2.260;2023-05-17T10:30:06;8.68;;;2.92;;
59308;SDS011;48433;53.016;-2.260;2023-05-17T10:32:35;10.73;;;3.35;;
59308;SDS011;48433;53.016;-2.260;2023-05-17T10:35:03;10.05;;;3.20;;
59308;SDS011;48433;53.016;-2.260;2023-05-17T10:37:40;10.25;;;3.20;;
59308;SDS011;48433;53.016;-2.260;2023-05-17T10:40:08;10.90;;;3.30;;
59308;SDS011;48433;53.016;-2.260;2023-05-17T10:42:41;9.30;;;2.95;;
59308;SDS011;48433;53.016;-2.260;2023-05-17T10:45:11;10.57;;;3.25;;
59308;SDS011;48433;53.016;-2.260;2023-05-17T10:47:39;11.52;;;3.60;;
59308;SDS011;48433;53.016;-2.260;2023-05-17T10:50:11;13.82;;;4.25;;
59308;SDS011;48433;53.016;-2.260;2023-05-17T10:52:45;12.38;;;4.35;;
59308;SDS011;48433;53.016;-2.260;2023-05-17T10:55:20;11.60;;;3.35;;
59308;SDS011;48433;53.016;-2.260;2023-05-17T11:00:37;9.32;;;3.72;;
59308;SDS011;48433;53.016;-2.260;2023-05-17T11:03:15;10.30;;;3.30;;
59308;SDS011;48433;53.016;-2.260;2023-05-17T11:06:13;13.30;;;3.83;;
59308;SDS011;48433;53.016;-2.260;2023-05-17T11:09:06;12.07;;;3.28;;
59308;SDS011;48433;53.016;-2.260;2023-05-17T11:12:02;10.95;;;3.95;;
59308;SDS011;48433;53.016;-2.260;2023-05-17T11:17:12;11.32;;;2.90;;
59308;SDS011;48433;53.016;-2.260;2023-05-17T11:19:50;12.27;;;2.88;;
59308;SDS011;48433;53.016;-2.260;2023-05-17T11:22:25;10.85;;;3.88;;
59308;SDS011;48433;53.016;-2.260;2023-05-17T11:24:55;13.00;;;3.40;;
59308;SDS011;48433;53.016;-2.260;2023-05-17T11:27:23;9.65;;;3.17;;
59308;SDS011;48433;53.016;-2.260;2023-05-17T11:29:55;10.55;;;2.65;;
59308;SDS011;48433;53.016;-2.260;2023-05-17T11:32:27;11.55;;;3.75;;
59308;SDS011;48433;53.016;-2.260;2023-05-17T11:35:00;8.48;;;3.47;;
59308;SDS011;48433;53.016;-2.260;2023-05-17T11:37:29;8.90;;;4.20;;
59308;SDS011;48433;53.016;-2.260;2023-05-17T11:40:01;8.32;;;2.70;;
59308;SDS011;48433;53.016;-2.260;2023-05-17T11:42:31;8.00;;;2.72;;
59308;SDS011;48433;53.016;-2.260;2023-05-17T11:45:00;6.60;;;2.72;;
59308;SDS011;48433;53.016;-2.260;2023-05-17T11:47:28;9.43;;;3.33;;
59308;SDS011;48433;53.016;-2.260;2023-05-17T11:50:00;12.68;;;3.47;;
59308;SDS011;48433;53.016;-2.260;2023-05-17T11:52:30;7.93;;;3.50;;
59308;SDS011;48433;53.016;-2.260;2023-05-17T11:54:59;8.40;;;3.08;;
59308;SDS011;48433;53.016;-2.260;2023-05-17T11:57:30;16.17;;;3.95;;
59308;SDS011;48433;53.016;-2.260;2023-05-17T11:59:59;10.38;;;3.45;;
59308;SDS011;48433;53.016;-2.260;2023-05-17T12:02:38;8.57;;;3.17;;
59308;SDS011;48433;53.016;-2.260;2023-05-17T12:05:07;10.02;;;3.22;;
59308;SDS011;48433;53.016;-2.260;2023-05-17T12:07:35;13.98;;;3.08;;
59308;SDS011;48433;53.016;-2.260;2023-05-17T12:10:03;9.40;;;3.25;;
59308;SDS011;48433;53.016;-2.260;2023-05-17T12:12:32;10.57;;;3.33;;
59308;SDS011;48433;53.016;-2.260;2023-05-17T12:15:00;8.95;;;3.45;;
59308;SDS011;48433;53.016;-2.260;2023-05-17T12:17:30;7.78;;;2.70;;
59308;SDS011;48433;53.016;-2.260;2023-05-17T12:20:05;10.10;;;3.28;;
59308;SDS011;48433;53.016;-2.260;2023-05-17T12:22:34;10.02;;;3.15;;
59308;SDS011;48433;53.016;-2.260;2023-05-17T12:25:21;8.40;;;2.78;;
59308;SDS011;48433;53.016;-2.260;2023-05-17T12:27:51;10.75;;;3.33;;
59308;SDS011;48433;53.016;-2.260;2023-05-17T12:30:19;11.30;;;3.50;;
59308;SDS011;48433;53.016;-2.260;2023-05-17T12:32:47;11.88;;;3.45;;
59308;SDS011;48433;53.016;-2.260;2023-05-17T12:35:15;8.65;;;3.70;;
59308;SDS011;48433;53.016;-2.260;2023-05-17T12:37:43;12.07;;;3.85;;
59308;SDS011;48433;53.016;-2.260;2023-05-17T12:40:11;14.35;;;4.68;;
59308;SDS011;48433;53.016;-2.260;2023-05-17T12:42:39;11.75;;;4.30;;
59308;SDS011;48433;53.016;-2.260;2023-05-17T12:45:09;13.60;;;4.47;;
59308;SDS011;48433;53.016;-2.260;2023-05-17T12:47:39;10.25;;;3.88;;
59308;SDS011;48433;53.016;-2.260;2023-05-17T12:50:07;11.30;;;3.88;;
59308;SDS011;48433;53.016;-2.260;2023-05-17T12:52:35;10.85;;;4.22;;
59308;SDS011;48433;53.016;-2.260;2023-05-17T12:55:03;9.27;;;4.22;;
59308;SDS011;48433;53.016;-2.260;2023-05-17T12:57:31;10.55;;;3.88;;
59308;SDS011;48433;53.016;-2.260;2023-05-17T12:59:59;13.65;;;4.47;;
59308;SDS011;48433;53.016;-2.260;2023-05-17T13:02:33;12.70;;;4.75;;
59308;SDS011;48433;53.016;-2.260;2023-05-17T13:05:12;12.93;;;4.78;;
59308;SDS011;48433;53.016;-2.260;2023-05-17T13:07:44;11.05;;;4.05;;
59308;SDS011;48433;53.016;-2.260;2023-05-17T13:10:19;14.60;;;5.30;;
59308;SDS011;48433;53.016;-2.260;2023-05-17T13:12:54;12.68;;;4.65;;
59308;SDS011;48433;53.016;-2.260;2023-05-17T13:15:26;15.07;;;4.25;;
59308;SDS011;48433;53.016;-2.260;2023-05-17T13:17:58;13.40;;;4.43;;
59308;SDS011;48433;53.016;-2.260;2023-05-17T13:20:26;15.75;;;4.05;;
59308;SDS011;48433;53.016;-2.260;2023-05-17T13:22:55;10.60;;;4.00;;
59308;SDS011;48433;53.016;-2.260;2023-05-17T13:25:23;10.85;;;4.10;;
59308;SDS011;48433;53.016;-2.260;2023-05-17T13:27:51;10.40;;;4.50;;
59308;SDS011;48433;53.016;-2.260;2023-05-17T13:30:21;12.57;;;4.10;;
59308;SDS011;48433;53.016;-2.260;2023-05-17T13:32:49;10.30;;;3.70;;
59308;SDS011;48433;53.016;-2.260;2023-05-17T13:35:17;12.93;;;4.05;;
59308;SDS011;48433;53.016;-2.260;2023-05-17T13:37:45;9.95;;;3.45;;
59308;SDS011;48433;53.016;-2.260;2023-05-17T13:40:13;11.77;;;4.65;;
59308;SDS011;48433;53.016;-2.260;2023-05-17T13:42:41;8.38;;;3.65;;
59308;SDS011;48433;53.016;-2.260;2023-05-17T13:45:09;10.18;;;3.70;;
59308;SDS011;48433;53.016;-2.260;2023-05-17T13:47:38;10.68;;;4.45;;
59308;SDS011;48433;53.016;-2.260;2023-05-17T13:50:06;10.88;;;4.03;;
59308;SDS011;48433;53.016;-2.260;2023-05-17T13:52:35;11.40;;;4.28;;
59308;SDS011;48433;53.016;-2.260;2023-05-17T13:55:03;13.10;;;5.55;;
59308;SDS011;48433;53.016;-2.260;2023-05-17T13:57:31;10.45;;;3.70;;
59308;SDS011;48433;53.016;-2.260;2023-05-17T13:59:59;10.88;;;4.82;;
59308;SDS011;48433;53.016;-2.260;2023-05-17T14:02:27;8.98;;;3.83;;
59308;SDS011;48433;53.016;-2.260;2023-05-17T14:04:54;8.40;;;3.80;;
59308;SDS011;48433;53.016;-2.260;2023-05-17T14:07:22;8.02;;;3.75;;
59308;SDS011;48433;53.016;-2.260;2023-05-17T14:09:50;10.55;;;3.90;;
59308;SDS011;48433;53.016;-2.260;2023-05-17T14:12:18;9.27;;;3.63;;
59308;SDS011;48433;53.016;-2.260;2023-05-17T14:14:46;10.98;;;3.88;;
59308;SDS011;48433;53.016;-2.260;2023-05-17T14:17:14;13.93;;;4.15;;
59308;SDS011;48433;53.016;-2.260;2023-05-17T14:19:41;10.57;;;3.72;;
59308;SDS011;48433;53.016;-2.260;2023-05-17T14:22:09;9.32;;;3.65;;
59308;SDS011;48433;53.016;-2.260;2023-05-17T14:24:37;9.65;;;4.22;;
59308;SDS011;48433;53.016;-2.260;2023-05-17T14:27:04;11.20;;;4.43;;
59308;SDS011;48433;53.016;-2.260;2023-05-17T14:29:32;12.50;;;3.50;;
59308;SDS011;48433;53.016;-2.260;2023-05-17T14:32:00;19.63;;;4.38;;
59308;SDS011;48433;53.016;-2.260;2023-05-17T14:34:35;12.45;;;3.40;;
59308;SDS011;48433;53.016;-2.260;2023-05-17T14:37:03;8.38;;;4.13;;
59308;SDS011;48433;53.016;-2.260;2023-05-17T14:39:31;22.48;;;4.65;;
59308;SDS011;48433;53.016;-2.260;2023-05-17T14:41:58;9.25;;;3.67;;
59308;SDS011;48433;53.016;-2.260;2023-05-17T14:44:26;11.25;;;3.05;;
59308;SDS011;48433;53.016;-2.260;2023-05-17T14:46:54;10.60;;;3.97;;
59308;SDS011;48433;53.016;-2.260;2023-05-17T14:49:21;9.95;;;3.80;;
59308;SDS011;48433;53.016;-2.260;2023-05-17T14:51:49;10.43;;;3.63;;
59308;SDS011;48433;53.016;-2.260;2023-05-17T14:54:17;12.27;;;3.90;;